createdAt,value
2018-12-16T00:00:37.295Z,49.30
2018-12-16T00:03:08.408Z,50.33
2018-12-16T00:05:39.042Z,54.03
2018-12-16T00:08:07.557Z,50.83
2018-12-16T00:10:36.615Z,55.70
2018-12-16T00:13:05.580Z,51.43
2018-12-16T00:15:34.531Z,47.97
2018-12-16T00:18:03.457Z,49.10
2018-12-16T00:20:32.409Z,50.93
2018-12-16T00:23:01.106Z,46.33
2018-12-16T00:25:30.252Z,46.80
2018-12-16T00:27:58.815Z,54.33
2018-12-16T00:30:27.768Z,51.27
2018-12-16T00:32:56.746Z,54.57
2018-12-16T00:35:25.676Z,49.13
2018-12-16T00:37:54.635Z,46.50
2018-12-16T00:40:23.759Z,46.13
2018-12-16T00:42:52.476Z,44.83
2018-12-16T00:45:21.370Z,44.47
2018-12-16T00:47:50.001Z,43.23
2018-12-16T00:50:19.024Z,43.95
2018-12-16T00:52:48.005Z,47.37
2018-12-16T00:55:17.003Z,45.10
2018-12-16T00:57:45.987Z,43.63
2018-12-16T01:00:15.197Z,41.83
2018-12-16T01:02:43.785Z,42.37
2018-12-16T01:05:12.507Z,42.33
2018-12-16T01:07:41.528Z,41.63
2018-12-16T01:10:10.613Z,43.00
2018-12-16T01:12:39.159Z,41.30
2018-12-16T01:15:08.113Z,41.33
2018-12-16T01:17:37.096Z,41.63
2018-12-16T01:20:07.166Z,41.48
2018-12-16T01:22:35.740Z,36.87
2018-12-16T01:25:11.425Z,37.03
2018-12-16T01:27:40.446Z,38.37
2018-12-16T01:30:12.060Z,37.67
2018-12-16T01:32:41.023Z,38.57
2018-12-16T01:35:09.762Z,38.47
2018-12-16T01:37:38.702Z,40.10
2018-12-16T01:40:08.362Z,39.63
2018-12-16T01:42:37.286Z,44.63
2018-12-16T01:45:05.998Z,41.17
2018-12-16T01:47:34.934Z,41.63
2018-12-16T01:50:04.308Z,41.93
2018-12-16T01:52:32.946Z,44.90
2018-12-16T01:55:01.943Z,40.30
2018-12-16T01:57:30.875Z,38.47
2018-12-16T01:59:59.816Z,38.83
2018-12-16T02:02:28.726Z,40.27
2018-12-16T02:04:57.301Z,38.10
2018-12-16T02:07:26.378Z,36.80
2018-12-16T02:09:55.270Z,34.90
2018-12-16T02:12:24.200Z,36.87
2018-12-16T02:14:52.798Z,36.00
2018-12-16T02:17:21.312Z,38.60
2018-12-16T02:19:50.324Z,37.77
2018-12-16T02:22:18.880Z,36.57
2018-12-16T02:24:47.765Z,31.67
2018-12-16T02:27:16.709Z,33.17
2018-12-16T02:29:45.263Z,34.43
2018-12-16T02:32:14.234Z,34.27
2018-12-16T02:34:43.147Z,32.20
2018-12-16T02:37:12.019Z,33.33
2018-12-16T02:39:40.599Z,34.07
2018-12-16T02:42:09.578Z,30.50
2018-12-16T02:44:38.611Z,30.13
2018-12-16T02:47:07.551Z,32.00
2018-12-16T02:49:36.064Z,34.43
2018-12-16T02:52:04.611Z,35.50
2018-12-16T02:54:33.469Z,38.90
2018-12-16T02:57:02.043Z,43.53
2018-12-16T02:59:30.922Z,36.80
2018-12-16T03:01:59.862Z,33.50
2018-12-16T03:04:28.520Z,32.63
2018-12-16T03:06:57.075Z,33.93
2018-12-16T03:09:25.993Z,37.53
2018-12-16T03:11:55.022Z,44.77
2018-12-16T03:14:23.591Z,38.77
2018-12-16T03:16:52.168Z,33.20
2018-12-16T03:19:20.742Z,32.17
2018-12-16T03:21:49.299Z,35.20
2018-12-16T03:24:19.300Z,31.17
2018-12-16T03:26:47.901Z,31.33
2018-12-16T03:29:16.504Z,31.13
2018-12-16T03:31:46.568Z,31.33
2018-12-16T03:34:15.573Z,31.93
2018-12-16T03:36:44.185Z,32.97
2018-12-16T03:39:13.065Z,30.53
2018-12-16T03:41:42.049Z,31.63
2018-12-16T03:44:10.940Z,30.67
2018-12-16T03:46:39.846Z,30.63
2018-12-16T03:49:08.461Z,30.80
2018-12-16T03:51:37.430Z,29.43
2018-12-16T03:54:06.365Z,28.77
2018-12-16T03:56:35.339Z,30.23
2018-12-16T03:59:10.781Z,29.20
2018-12-16T04:01:40.776Z,29.87
2018-12-16T04:04:09.716Z,29.70
2018-12-16T04:06:38.944Z,28.10
2018-12-16T04:09:07.992Z,29.50
2018-12-16T04:11:36.610Z,29.00
2018-12-16T04:14:05.271Z,29.50
2018-12-16T04:16:36.328Z,29.07
2018-12-16T04:19:05.195Z,28.13
2018-12-16T04:21:34.097Z,28.33
2018-12-16T04:24:03.035Z,27.53
2018-12-16T04:26:32.009Z,28.53
2018-12-16T04:29:01.025Z,28.37
2018-12-16T04:31:29.980Z,28.40
2018-12-16T04:33:58.891Z,29.40
2018-12-16T04:36:27.801Z,28.07
2018-12-16T04:38:58.270Z,28.47
2018-12-16T04:41:27.222Z,28.97
2018-12-16T04:43:56.157Z,27.97
2018-12-16T04:46:25.083Z,28.03
2018-12-16T04:48:54.096Z,29.20
2018-12-16T04:51:23.060Z,28.67
2018-12-16T04:53:52.060Z,30.07
2018-12-16T04:56:21.026Z,28.00
2018-12-16T04:58:49.569Z,28.43
2018-12-16T05:01:18.500Z,28.07
2018-12-16T05:03:47.503Z,27.70
2018-12-16T05:06:16.466Z,30.77
2018-12-16T05:08:45.416Z,30.27
2018-12-16T05:11:13.935Z,30.83
2018-12-16T05:13:42.888Z,30.33
2018-12-16T05:16:11.849Z,29.57
2018-12-16T05:18:40.839Z,29.53
2018-12-16T05:21:09.458Z,28.97
2018-12-16T05:23:41.768Z,28.83
2018-12-16T05:26:09.017Z,29.30
2018-12-16T05:28:38.005Z,30.47
2018-12-16T05:31:06.644Z,32.20
2018-12-16T05:33:35.592Z,29.50
2018-12-16T05:36:04.557Z,28.90
2018-12-16T05:38:33.111Z,30.97
2018-12-16T05:41:03.157Z,30.33
2018-12-16T05:43:32.132Z,30.27
2018-12-16T05:46:01.223Z,31.10
2018-12-16T05:48:30.228Z,30.03
2018-12-16T05:50:59.260Z,30.77
2018-12-16T05:53:27.902Z,31.73
2018-12-16T05:55:56.786Z,30.53
2018-12-16T05:58:25.469Z,29.50
2018-12-16T06:00:54.460Z,29.40
2018-12-16T06:03:23.524Z,27.60
2018-12-16T06:05:52.088Z,27.80
2018-12-16T06:08:21.119Z,26.30
2018-12-16T06:10:50.152Z,26.40
2018-12-16T06:13:20.198Z,25.97
2018-12-16T06:15:49.157Z,31.43
2018-12-16T06:18:17.806Z,29.77
2018-12-16T06:20:46.790Z,31.63
2018-12-16T06:23:15.738Z,28.43
2018-12-16T06:25:44.686Z,29.50
2018-12-16T06:28:13.399Z,29.60
2018-12-16T06:30:42.831Z,27.90
2018-12-16T06:33:11.890Z,28.23
2018-12-16T06:35:40.896Z,29.10
2018-12-16T06:38:09.842Z,30.13
2018-12-16T06:40:38.787Z,44.90
2018-12-16T06:43:07.735Z,38.67
2018-12-16T06:45:36.765Z,39.00
2018-12-16T06:48:05.696Z,33.67
2018-12-16T06:50:34.315Z,34.27
2018-12-16T06:53:03.233Z,31.63
2018-12-16T06:55:31.820Z,29.60
2018-12-16T06:58:00.823Z,30.80
2018-12-16T07:00:29.799Z,28.77
2018-12-16T07:02:58.384Z,29.03
2018-12-16T07:05:26.975Z,29.07
2018-12-16T07:07:55.869Z,29.03
2018-12-16T07:10:28.763Z,28.27
2018-12-16T07:12:57.782Z,29.13
2018-12-16T07:15:27.021Z,31.10
2018-12-16T07:17:55.593Z,30.07
2018-12-16T07:20:24.187Z,29.63
2018-12-16T07:22:52.939Z,29.87
2018-12-16T07:25:21.993Z,29.90
2018-12-16T07:27:50.576Z,34.03
2018-12-16T07:30:19.607Z,32.57
2018-12-16T07:32:48.179Z,34.97
2018-12-16T07:35:17.630Z,31.87
2018-12-16T07:37:46.930Z,32.00
2018-12-16T07:40:16.272Z,30.17
2018-12-16T07:42:44.940Z,31.30
2018-12-16T07:45:13.912Z,30.93
2018-12-16T07:47:43.627Z,32.50
2018-12-16T07:50:12.513Z,30.13
2018-12-16T07:52:41.456Z,31.27
2018-12-16T07:55:10.433Z,30.40
2018-12-16T07:57:39.020Z,31.57
2018-12-16T08:00:08.656Z,34.93
2018-12-16T08:02:37.599Z,32.77
2018-12-16T08:05:06.692Z,34.10
2018-12-16T08:07:35.274Z,37.07
2018-12-16T08:10:04.620Z,34.77
2018-12-16T08:12:33.615Z,37.27
2018-12-16T08:15:02.199Z,36.00
2018-12-16T08:17:30.801Z,44.23
2018-12-16T08:19:59.707Z,38.57
2018-12-16T08:22:28.626Z,37.93
2018-12-16T08:24:57.189Z,39.67
2018-12-16T08:27:26.153Z,37.00
2018-12-16T08:29:55.112Z,38.33
2018-12-16T08:32:24.196Z,39.53
2018-12-16T08:34:52.732Z,38.80
2018-12-16T08:37:21.626Z,36.53
2018-12-16T08:39:50.202Z,36.13
2018-12-16T08:42:18.821Z,38.60
2018-12-16T08:44:47.677Z,37.70
2018-12-16T08:47:16.619Z,39.47
2018-12-16T08:49:45.534Z,37.00
2018-12-16T08:52:14.065Z,35.65
2018-12-16T08:54:42.621Z,35.83
2018-12-16T08:57:12.550Z,30.60
2018-12-16T08:59:42.722Z,31.62
2018-12-16T09:02:11.294Z,31.48
2018-12-16T09:04:40.287Z,31.30
2018-12-16T09:07:08.844Z,29.50
2018-12-16T09:09:37.897Z,32.17
2018-12-16T09:12:06.880Z,33.53
2018-12-16T09:14:41.351Z,52.98
2018-12-16T09:17:10.421Z,62.60
2018-12-16T09:19:39.066Z,127.47
2018-12-16T09:27:55.950Z,27.17
2018-12-16T09:30:25.084Z,32.93
2018-12-16T09:32:54.086Z,28.93
2018-12-16T09:35:22.669Z,40.07
2018-12-16T09:37:51.213Z,29.40
2018-12-16T09:40:20.562Z,28.97
2018-12-16T09:42:49.496Z,26.27
2018-12-16T09:45:18.083Z,27.53
2018-12-16T09:47:46.862Z,26.40
2018-12-16T09:50:15.765Z,24.37
2018-12-16T09:52:45.821Z,25.27
2018-12-16T09:55:15.451Z,23.60
2018-12-16T09:57:45.128Z,26.10
2018-12-16T10:00:14.099Z,25.37
2018-12-16T10:02:44.621Z,24.50
2018-12-16T10:05:14.432Z,25.33
2018-12-16T10:07:43.419Z,23.83
2018-12-16T10:10:12.546Z,24.33
2018-12-16T10:12:41.737Z,24.53
2018-12-16T10:15:10.753Z,27.57
2018-12-16T10:17:40.134Z,25.70
2018-12-16T10:20:09.606Z,28.87
2018-12-16T10:22:38.373Z,25.80
2018-12-16T10:25:07.624Z,24.40
2018-12-16T10:27:36.624Z,23.67
2018-12-16T10:30:07.504Z,24.47
2018-12-16T10:32:37.453Z,24.07
2018-12-16T10:35:07.025Z,25.63
2018-12-16T10:37:39.054Z,25.23
2018-12-16T10:40:08.421Z,23.70
2018-12-16T10:42:36.997Z,33.17
2018-12-16T10:45:07.577Z,26.07
2018-12-16T10:47:36.184Z,25.72
2018-12-16T10:50:05.604Z,27.20
2018-12-16T10:52:34.597Z,25.63
2018-12-16T10:55:03.219Z,28.50
2018-12-16T10:57:31.837Z,25.80
2018-12-16T11:00:00.358Z,25.53
2018-12-16T11:02:29.381Z,26.33
2018-12-16T11:04:58.346Z,26.48
2018-12-16T11:07:27.368Z,25.13
2018-12-16T11:09:56.534Z,27.10
2018-12-16T11:12:25.729Z,28.60
2018-12-16T11:14:54.377Z,32.00
2018-12-16T11:17:22.918Z,25.13
2018-12-16T11:19:54.334Z,26.57
2018-12-16T11:22:25.920Z,24.87
2018-12-16T11:24:54.548Z,25.73
2018-12-16T11:27:23.479Z,24.70
2018-12-16T11:29:52.421Z,25.90
2018-12-16T11:32:21.409Z,27.83
2018-12-16T11:34:50.009Z,25.90
2018-12-16T11:37:18.959Z,25.60
2018-12-16T11:39:47.586Z,26.73
2018-12-16T11:42:16.519Z,26.47
2018-12-16T11:44:45.130Z,27.20
2018-12-16T11:47:13.727Z,29.33
2018-12-16T11:49:44.363Z,27.03
2018-12-16T11:52:13.169Z,24.80
2018-12-16T11:54:42.197Z,24.80
2018-12-16T11:57:10.747Z,26.57
2018-12-16T11:59:39.738Z,24.77
2018-12-16T12:02:08.725Z,27.40
2018-12-16T12:04:39.756Z,26.80
2018-12-16T12:07:08.385Z,24.63
2018-12-16T12:09:37.040Z,24.90
2018-12-16T12:12:06.088Z,25.10
2018-12-16T12:14:34.694Z,24.93
2018-12-16T12:22:46.761Z,23.07
2018-12-16T12:25:19.847Z,28.40
2018-12-16T12:30:13.571Z,25.30
2018-12-16T12:32:42.132Z,26.97
2018-12-16T12:35:10.743Z,26.33
2018-12-16T12:37:39.316Z,27.43
2018-12-16T12:40:07.935Z,23.87
2018-12-16T12:42:36.562Z,25.57
2018-12-16T12:45:06.575Z,25.57
2018-12-16T12:47:35.609Z,26.47
2018-12-16T12:50:05.147Z,24.77
2018-12-16T12:52:34.084Z,26.10
2018-12-16T12:55:03.094Z,29.57
2018-12-16T12:57:32.058Z,28.07
2018-12-16T13:00:00.674Z,29.43
2018-12-16T13:02:29.608Z,25.93
2018-12-16T13:04:58.571Z,27.60
2018-12-16T13:07:27.536Z,27.17
2018-12-16T13:09:56.140Z,27.20
2018-12-16T13:12:24.738Z,27.67
2018-12-16T13:14:53.723Z,24.97
2018-12-16T13:17:23.994Z,27.20
2018-12-16T13:19:52.627Z,26.43
2018-12-16T13:22:21.305Z,27.27
2018-12-16T13:25:01.136Z,27.83
2018-12-16T13:27:30.105Z,27.97
2018-12-16T13:29:59.017Z,26.87
2018-12-16T13:32:27.958Z,28.80
2018-12-16T13:34:56.494Z,30.13
2018-12-16T13:37:25.459Z,28.37
2018-12-16T13:39:58.448Z,28.23
2018-12-16T13:42:27.351Z,27.73
2018-12-16T13:44:56.273Z,30.13
2018-12-16T13:47:25.174Z,32.87
2018-12-16T13:49:54.162Z,34.73
2018-12-16T13:52:22.928Z,27.27
2018-12-16T13:54:51.970Z,29.10
2018-12-16T13:57:20.854Z,27.97
2018-12-16T13:59:49.733Z,27.30
2018-12-16T14:02:18.259Z,34.63
2018-12-16T14:04:46.862Z,31.63
2018-12-16T14:07:15.532Z,28.87
2018-12-16T14:09:44.563Z,32.37
2018-12-16T14:12:13.574Z,34.87
2018-12-16T14:14:42.155Z,28.97
2018-12-16T14:17:11.103Z,31.27
2018-12-16T14:19:39.987Z,31.50
2018-12-16T14:22:08.957Z,34.83
2018-12-16T14:24:37.915Z,33.30
2018-12-16T14:27:06.512Z,30.83
2018-12-16T14:29:35.620Z,34.23
2018-12-16T14:32:04.255Z,35.00
2018-12-16T14:34:32.796Z,37.47
2018-12-16T14:37:04.523Z,42.03
2018-12-16T14:39:33.099Z,40.43
2018-12-16T14:42:01.656Z,42.23
2018-12-16T14:44:30.521Z,42.67
2018-12-16T14:46:59.525Z,38.20
2018-12-16T14:49:28.529Z,37.33
2018-12-16T14:51:57.190Z,35.60
2018-12-16T14:54:27.259Z,35.67
2018-12-16T14:56:56.289Z,34.53
2018-12-16T14:59:24.855Z,33.30
2018-12-16T15:01:53.900Z,39.50
2018-12-16T15:04:22.477Z,36.23
2018-12-16T15:06:51.457Z,37.10
2018-12-16T15:09:20.553Z,35.50
2018-12-16T15:11:49.552Z,38.63
2018-12-16T15:14:18.486Z,35.83
2018-12-16T15:16:47.427Z,40.67
2018-12-16T15:19:16.035Z,40.57
2018-12-16T15:21:44.645Z,42.60
2018-12-16T15:24:13.621Z,42.00
2018-12-16T15:26:42.563Z,43.23
2018-12-16T15:29:11.458Z,43.33
2018-12-16T15:31:40.393Z,49.13
2018-12-16T15:34:09.273Z,52.70
2018-12-16T15:36:37.892Z,49.37
2018-12-16T15:39:07.680Z,46.60
2018-12-16T15:41:37.453Z,48.70
2018-12-16T15:44:06.440Z,46.30
2018-12-16T15:46:35.034Z,47.63
2018-12-16T15:49:03.619Z,47.73
2018-12-16T15:51:32.305Z,49.00
2018-12-16T15:54:01.366Z,45.00
2018-12-16T15:56:30.298Z,44.30
2018-12-16T15:58:58.878Z,42.07
2018-12-16T16:01:27.397Z,36.93
2018-12-16T16:03:56.339Z,42.10
2018-12-16T16:06:26.050Z,42.43
2018-12-16T16:08:54.636Z,37.27
2018-12-16T16:11:23.218Z,38.47
2018-12-16T16:13:52.124Z,43.47
2018-12-16T16:16:21.222Z,41.93
2018-12-16T16:18:50.156Z,42.63
2018-12-16T16:21:18.764Z,42.77
2018-12-16T16:23:47.332Z,46.33
2018-12-16T16:26:16.549Z,49.57
2018-12-16T16:28:45.588Z,48.93
2018-12-16T16:31:14.169Z,54.30
2018-12-16T16:33:42.700Z,54.40
2018-12-16T16:36:11.234Z,57.30
2018-12-16T16:38:40.140Z,60.13
2018-12-16T16:41:09.128Z,52.80
2018-12-16T16:43:38.113Z,57.03
2018-12-16T16:46:06.680Z,54.53
2018-12-16T16:48:35.621Z,56.50
2018-12-16T16:51:04.613Z,56.80
2018-12-16T16:53:33.633Z,60.67
2018-12-16T16:56:02.343Z,54.53
2018-12-16T16:58:31.317Z,55.33
2018-12-16T17:01:00.238Z,56.53
2018-12-16T17:03:29.211Z,51.23
2018-12-16T17:05:57.778Z,50.30
2018-12-16T17:08:28.837Z,48.57
2018-12-16T17:10:58.355Z,45.13
2018-12-16T17:13:27.534Z,48.93
2018-12-16T17:15:56.551Z,48.23
2018-12-16T17:18:25.113Z,45.67
2018-12-16T17:20:55.086Z,43.27
2018-12-16T17:23:24.058Z,41.13
2018-12-16T17:25:53.065Z,45.17
2018-12-16T17:28:22.044Z,46.02
2018-12-16T17:30:50.695Z,49.67
2018-12-16T17:33:19.602Z,60.45
2018-12-16T17:35:48.251Z,57.47
2018-12-16T17:38:18.270Z,61.03
2018-12-16T17:40:47.182Z,48.60
2018-12-16T17:43:15.781Z,43.10
2018-12-16T17:45:44.340Z,42.60
2018-12-16T17:48:13.017Z,41.03
2018-12-16T17:50:41.912Z,38.67
2018-12-16T17:53:10.855Z,40.07
2018-12-16T17:55:40.820Z,38.63
2018-12-16T17:58:09.736Z,40.55
2018-12-16T18:00:38.378Z,47.07
2018-12-16T18:03:07.074Z,43.33
2018-12-16T18:05:35.606Z,40.30
2018-12-16T18:08:04.515Z,41.73
2018-12-16T18:10:33.495Z,44.87
2018-12-16T18:13:02.519Z,51.40
2018-12-16T18:15:31.088Z,56.40
2018-12-16T18:17:59.640Z,53.53
2018-12-16T18:20:28.633Z,66.63
2018-12-16T18:22:57.554Z,58.33
2018-12-16T18:25:26.465Z,44.10
2018-12-16T18:27:55.032Z,47.70
2018-12-16T18:30:23.595Z,41.40
2018-12-16T18:32:52.750Z,40.87
2018-12-16T18:35:21.367Z,46.40
2018-12-16T18:37:50.541Z,62.43
2018-12-16T18:40:19.089Z,72.87
2018-12-16T18:42:48.086Z,57.83
2018-12-16T18:45:17.030Z,53.97
2018-12-16T18:47:45.616Z,51.47
2018-12-16T18:50:14.163Z,56.37
2018-12-16T18:52:42.783Z,63.13
2018-12-16T18:55:11.392Z,48.93
2018-12-16T18:57:39.970Z,39.27
2018-12-16T19:00:11.334Z,43.90
2018-12-16T19:02:40.312Z,49.03
2018-12-16T19:05:09.285Z,49.07
2018-12-16T19:07:38.282Z,49.97
2018-12-16T19:10:07.466Z,55.17
2018-12-16T19:12:36.363Z,54.20
2018-12-16T19:15:07.277Z,55.97
2018-12-16T19:17:36.246Z,57.03
2018-12-16T19:20:05.281Z,48.90
2018-12-16T19:22:33.850Z,43.77
2018-12-16T19:25:02.826Z,40.67
2018-12-16T19:27:31.821Z,37.70
2018-12-16T19:30:00.444Z,40.00
2018-12-16T19:32:28.969Z,39.07
2018-12-16T19:34:57.913Z,40.40
2018-12-16T19:37:26.864Z,37.63
2018-12-16T19:39:55.922Z,43.30
2018-12-16T19:42:24.437Z,48.90
2018-12-16T19:44:54.418Z,42.33
2018-12-16T19:47:23.326Z,45.57
2018-12-16T19:49:51.839Z,47.67
2018-12-16T19:52:20.567Z,45.13
2018-12-16T19:54:49.472Z,57.13
2018-12-16T19:57:18.047Z,56.10
2018-12-16T19:59:46.997Z,49.80
2018-12-16T20:02:15.591Z,44.07
2018-12-16T20:04:44.593Z,45.53
2018-12-16T20:07:14.664Z,46.00
2018-12-16T20:09:43.224Z,49.73
2018-12-16T20:12:11.881Z,44.60
2018-12-16T20:14:40.453Z,45.97
2018-12-16T20:17:09.421Z,44.73
2018-12-16T20:19:38.015Z,41.00
2018-12-16T20:22:07.006Z,44.70
2018-12-16T20:24:35.906Z,44.30
2018-12-16T20:27:04.457Z,46.37
2018-12-16T20:29:32.985Z,44.43
2018-12-16T20:32:01.932Z,46.63
2018-12-16T20:34:30.828Z,41.87
2018-12-16T20:36:59.753Z,43.73
2018-12-16T20:39:28.335Z,45.10
2018-12-16T20:41:56.887Z,47.23
2018-12-16T20:44:25.921Z,53.87
2018-12-16T20:46:54.512Z,47.47
2018-12-16T20:49:24.140Z,44.47
2018-12-16T20:51:53.081Z,42.53
2018-12-16T20:54:22.449Z,42.50
2018-12-16T20:56:51.340Z,42.20
2018-12-16T20:59:19.923Z,43.47
2018-12-16T21:01:48.444Z,42.03
2018-12-16T21:04:17.407Z,41.20
2018-12-16T21:06:46.302Z,47.67
2018-12-16T21:09:15.253Z,44.60
2018-12-16T21:11:49.728Z,45.67
2018-12-16T21:14:23.832Z,45.90
2018-12-16T21:16:57.850Z,45.63
2018-12-16T21:19:28.144Z,42.60
2018-12-16T21:21:57.961Z,50.07
2018-12-16T21:24:26.590Z,42.07
2018-12-16T21:26:55.675Z,42.73
2018-12-16T21:29:24.639Z,43.87
2018-12-16T21:31:53.235Z,46.80
2018-12-16T21:34:23.438Z,45.63
2018-12-16T21:36:51.992Z,43.97
2018-12-16T21:39:20.960Z,49.90
2018-12-16T21:41:49.516Z,52.07
2018-12-16T21:44:18.419Z,51.23
2018-12-16T21:46:47.372Z,52.83
2018-12-16T21:49:16.321Z,48.97
2018-12-16T21:51:44.885Z,48.90
2018-12-16T21:54:13.442Z,54.07
2018-12-16T21:56:42.363Z,55.13
2018-12-16T21:59:11.281Z,55.87
2018-12-16T22:01:39.908Z,60.83
2018-12-16T22:04:08.944Z,56.00
2018-12-16T22:06:37.898Z,57.23
2018-12-16T22:09:07.314Z,57.30
2018-12-16T22:11:37.377Z,56.80
2018-12-16T22:14:06.328Z,52.00
2018-12-16T22:16:35.351Z,50.47
2018-12-16T22:19:03.923Z,53.77
2018-12-16T22:21:32.546Z,49.40
2018-12-16T22:24:01.467Z,47.20
2018-12-16T22:26:30.465Z,47.10
2018-12-16T22:28:59.019Z,45.17
2018-12-16T22:31:27.627Z,46.10
2018-12-16T22:33:56.169Z,50.77
2018-12-16T22:36:25.099Z,50.47
2018-12-16T22:38:54.053Z,54.73
2018-12-16T22:41:23.058Z,51.27
2018-12-16T22:43:51.847Z,53.83
2018-12-16T22:46:21.282Z,50.87
2018-12-16T22:48:50.213Z,49.97
2018-12-16T22:51:19.115Z,60.37
2018-12-16T22:53:47.685Z,60.30
2018-12-16T22:56:16.218Z,55.50
2018-12-16T22:58:45.201Z,56.57
2018-12-16T23:01:16.748Z,51.23
2018-12-16T23:03:45.675Z,44.33
2018-12-16T23:06:14.221Z,43.90
2018-12-16T23:08:43.147Z,45.13
2018-12-16T23:11:12.038Z,43.17
2018-12-16T23:13:40.989Z,44.63
2018-12-16T23:16:09.546Z,44.57
2018-12-16T23:18:38.203Z,45.93
2018-12-16T23:21:06.861Z,44.53
2018-12-16T23:23:35.758Z,41.37
2018-12-16T23:26:04.722Z,42.17
2018-12-16T23:28:33.766Z,40.47
2018-12-16T23:31:02.368Z,43.10
2018-12-16T23:33:30.909Z,41.33
2018-12-16T23:35:59.772Z,41.13
2018-12-16T23:38:28.659Z,39.43
2018-12-16T23:40:57.680Z,42.63
2018-12-16T23:43:26.379Z,41.93
2018-12-16T23:45:55.314Z,39.80
2018-12-16T23:48:23.913Z,41.53
2018-12-16T23:50:52.868Z,38.93
2018-12-16T23:53:21.509Z,38.83
2018-12-16T23:55:50.207Z,35.90
2018-12-16T23:58:19.403Z,37.30
